Time;durP1;ratioP1;P1;durP2;ratioP2;P2;SDS_P1;SDS_P2;PMS_P1;PMS_P2;Temp;Humidity;BMP_temperature;BMP_pressure;BME280_temperature;BME280_humidity;BME280_pressure;Samples;Min_cycle;Max_cycle;Signal;HPM_P1;HPM_P2
2022/04/10 00:01:52;;;;;;;;;;;;;;;2.18;72.97;96619.97;4891124;29;19961;-73
2022/04/10 00:04:19;;;;;;;;;;;;;;;2.18;72.98;96625.13;4888886;29;19961;-73
2022/04/10 00:06:45;;;;;;;;;;;;;;;2.18;73.11;96626.88;4890613;29;19993;-73
2022/04/10 00:09:13;;;;;;;;;;;;;;;2.17;73.20;96628.69;4883600;29;19970;-75
2022/04/10 00:11:39;;;;;;;;;;;;;;;2.16;73.03;96623.66;4893714;29;19961;-72
2022/04/10 00:14:05;;;;;;;;;;;;;;;2.16;73.22;96628.81;4889372;29;19964;-73
2022/04/10 00:16:31;;;;;;;;;;;;;;;2.14;73.21;96631.59;4870470;29;20338;-73
2022/04/10 00:19:01;;;;;;;;;;;;;;;2.15;73.17;96632.41;4870374;29;20022;-72
2022/04/10 00:21:27;;;;;;;;;;;;;;;2.14;73.42;96628.19;4889891;29;19974;-72
2022/04/10 00:23:53;;;;;;;;;;;;;;;2.15;74.02;96629.81;4889923;29;19962;-72
2022/04/10 00:26:19;;;;;;;;;;;;;;;2.12;73.52;96622.34;4890747;29;19966;-72
2022/04/10 00:28:45;;;;;;;;;;;;;;;2.13;74.18;96626.56;4890445;29;20413;-72
2022/04/10 00:31:11;;;;;;;;;;;;;;;2.11;74.41;96631.09;4890892;29;19963;-73
2022/04/10 00:33:37;;;;;;;;;;;;;;;2.09;74.16;96627.88;4886970;29;19979;-73
2022/04/10 00:36:03;;;;;;;;;;;;;;;2.09;73.97;96626.06;4883264;29;19973;-72
2022/04/10 00:38:29;;;;;;;;;;;;;;;2.08;74.18;96624.47;4890380;29;19966;-72
2022/04/10 00:40:55;;;;;;;;;;;;;;;2.06;75.54;96629.00;4890048;29;19986;-73
2022/04/10 00:43:22;;;;;;;;;;;;;;;2.03;74.76;96618.97;4890537;29;19993;-73
2022/04/10 00:45:48;;;;;;;;;;;;;;;2.01;74.82;96624.28;4890593;29;20425;-73
2022/04/10 00:48:13;;;;;;;;;;;;;;;1.97;75.12;96620.38;4887234;29;19966;-73
2022/04/10 00:51:40;;;;;;;;;;;;;;;1.94;75.51;96618.13;4889057;29;19962;-72
2022/04/10 00:53:25;;;;;;;;;;;;;;;1.96;75.46;96618.00;4890807;29;19957;-73
2022/04/10 00:55:51;;;;;;;;;;;;;;;1.97;75.11;96612.63;4888809;29;20014;-73
2022/04/10 00:58:17;;;;;;;;;;;;;;;1.99;75.33;96615.06;4886275;29;19966;-73
2022/04/10 01:00:43;;;;;;;;;;;;;;;2.01;75.39;96618.31;4885278;29;19973;-74
2022/04/10 01:03:09;;;;;;;;;;;;;;;2.02;75.39;96619.94;4886553;29;19965;-73
2022/04/10 01:05:34;;;;;;;;;;;;;;;2.04;75.22;96623.19;4891818;29;20053;-73
2022/04/10 01:08:00;;;;;;;;;;;;;;;2.07;75.14;96624.63;4881293;29;19970;-73
2022/04/10 01:10:26;;;;;;;;;;;;;;;2.11;76.01;96628.50;4886501;29;19959;-72
2022/04/10 01:12:52;;;;;;;;;;;;;;;2.12;75.53;96619.78;4894370;29;19985;-72
2022/04/10 01:15:18;;;;;;;;;;;;;;;2.14;75.19;96625.59;4892973;29;20325;-72
2022/04/10 01:17:44;;;;;;;;;;;;;;;2.14;74.76;96617.84;4882919;29;20032;-72
2022/04/10 01:20:10;;;;;;;;;;;;;;;2.17;75.04;96625.28;4890986;29;19987;-72
2022/04/10 01:22:36;;;;;;;;;;;;;;;2.15;74.97;96625.44;4895042;29;20404;-72
2022/04/10 01:25:03;;;;;;;;;;;;;;;2.28;80.33;96618.97;4887274;29;20011;-72
2022/04/10 01:27:29;;;;;;;;;;;;;;;2.33;75.59;96617.53;4885616;29;19956;-73
2022/04/10 01:29:55;;;;;;;;;;;;;;;2.30;74.89;96610.09;4893888;29;19971;-73
2022/04/10 01:32:21;;;;;;;;;;;;;;;2.28;74.99;96606.03;4885044;29;20443;-73
2022/04/10 01:34:47;;;;;;;;;;;;;;;2.23;75.02;96612.50;4888240;29;20017;-72
2022/04/10 01:37:15;;;;;;;;;;;;;;;2.22;74.88;96620.44;4883972;29;20419;-72
2022/04/10 01:39:41;;;;;;;;;;;;;;;2.20;74.84;96610.22;4890610;29;20374;-74
2022/04/10 01:42:07;;;;;;;;;;;;;;;2.21;74.80;96616.25;4891436;29;19992;-73
2022/04/10 01:44:42;;;;;;;;;;;;;;;2.17;74.86;96620.91;4897252;29;19961;-73
2022/04/10 01:47:09;;;;;;;;;;;;;;;2.16;74.96;96621.91;4895246;29;19967;-71
2022/04/10 01:49:35;;;;;;;;;;;;;;;2.15;74.72;96614.28;4889905;29;19959;-73
2022/04/10 01:52:01;;;;;;;;;;;;;;;2.15;74.64;96619.47;4890196;29;19977;-73
2022/04/10 01:54:27;;;;;;;;;;;;;;;2.13;74.63;96621.41;4895303;29;19957;-73
2022/04/10 01:56:53;;;;;;;;;;;;;;;2.08;74.47;96618.47;4895046;29;20031;-73
2022/04/10 01:59:19;;;;;;;;;;;;;;;2.13;83.90;96624.78;4889657;29;19999;-73
2022/04/10 02:01:45;;;;;;;;;;;;;;;2.27;77.57;96610.41;4890059;29;19963;-73
2022/04/10 02:04:11;;;;;;;;;;;;;;;2.27;74.69;96605.25;4896298;29;19982;-72
2022/04/10 02:06:37;;;;;;;;;;;;;;;2.21;74.18;96609.28;4887660;29;19989;-72
2022/04/10 02:09:07;;;;;;;;;;;;;;;2.13;73.58;96595.53;4900385;29;20319;-72
2022/04/10 02:11:33;;;;;;;;;;;;;;;2.06;73.48;96599.72;4890177;29;19964;-73
2022/04/10 02:13:59;;;;;;;;;;;;;;;1.95;73.72;96609.44;4874070;29;20004;-72
2022/04/10 02:16:25;;;;;;;;;;;;;;;1.90;73.71;96603.09;4887561;29;20058;-72
2022/04/10 02:18:51;;;;;;;;;;;;;;;1.84;73.48;96607.13;4898145;29;19963;-72
2022/04/10 02:21:17;;;;;;;;;;;;;;;1.78;73.50;96611.16;4888249;29;20058;-72
2022/04/10 02:23:43;;;;;;;;;;;;;;;1.74;73.68;96609.88;4891517;29;19963;-72
2022/04/10 02:26:35;;;;;;;;;;;;;;;1.68;73.73;96607.91;4878270;29;19965;-72
2022/04/10 02:29:02;;;;;;;;;;;;;;;1.63;73.51;96610.94;4893058;29;20045;-72
2022/04/10 02:31:27;;;;;;;;;;;;;;;1.58;73.86;96604.66;4894478;29;19957;-72
2022/04/10 02:33:53;;;;;;;;;;;;;;;1.55;73.56;96612.72;4891955;29;20006;-72
2022/04/10 02:36:19;;;;;;;;;;;;;;;1.52;73.97;96615.63;4873092;29;19968;-72
2022/04/10 02:38:45;;;;;;;;;;;;;;;1.49;73.89;96613.34;4889608;29;20012;-72
2022/04/10 02:41:20;;;;;;;;;;;;;;;1.44;74.16;96621.56;4889376;29;20446;-72
2022/04/10 02:43:46;;;;;;;;;;;;;;;1.40;74.08;96613.31;4893716;29;19957;-72
2022/04/10 02:46:12;;;;;;;;;;;;;;;1.36;74.35;96624.91;4892491;29;20307;-72
2022/04/10 02:48:37;;;;;;;;;;;;;;;1.35;74.68;96620.72;4886904;29;19980;-73
2022/04/10 02:51:03;;;;;;;;;;;;;;;1.33;74.71;96614.91;4891121;29;20385;-73
2022/04/10 02:53:29;;;;;;;;;;;;;;;1.34;74.32;96623.44;4893758;29;19961;-73
2022/04/10 02:55:55;;;;;;;;;;;;;;;1.31;74.66;96626.38;4892930;29;19965;-73
2022/04/10 02:58:39;;;;;;;;;;;;;;;1.26;74.50;96631.16;4883944;29;19963;-73
2022/04/10 03:01:24;;;;;;;;;;;;;;;1.23;75.08;96629.72;4881389;29;20357;-71
2022/04/10 03:04:08;;;;;;;;;;;;;;;1.18;74.44;96629.38;4892701;29;19964;-73
2022/04/10 03:06:53;;;;;;;;;;;;;;;1.14;75.11;96633.22;4889291;29;19983;-73
2022/04/10 03:09:37;;;;;;;;;;;;;;;1.12;75.30;96637.72;4896752;29;20331;-73
2022/04/10 03:12:21;;;;;;;;;;;;;;;1.09;74.71;96635.44;4895653;29;19968;-72
2022/04/10 03:15:06;;;;;;;;;;;;;;;1.09;74.95;96651.78;4889750;29;19957;-74
2022/04/10 03:17:50;;;;;;;;;;;;;;;1.10;75.07;96644.81;4886550;29;19955;-73
2022/04/10 03:20:34;;;;;;;;;;;;;;;1.09;75.49;96654.34;4886798;29;19976;-73
2022/04/10 03:23:19;;;;;;;;;;;;;;;1.08;75.22;96649.34;4897247;29;19962;-73
2022/04/10 03:26:03;;;;;;;;;;;;;;;1.04;76.92;96656.56;4886924;29;19960;-74
2022/04/10 03:28:48;;;;;;;;;;;;;;;0.98;76.75;96655.41;4899173;29;19966;-74
2022/04/10 03:31:32;;;;;;;;;;;;;;;0.92;76.27;96653.41;4890066;29;19961;-74
2022/04/10 03:34:16;;;;;;;;;;;;;;;0.80;75.94;96657.25;4888265;29;19966;-74
2022/04/10 03:37:01;;;;;;;;;;;;;;;0.75;76.60;96662.03;4886526;29;19970;-73
2022/04/10 03:39:45;;;;;;;;;;;;;;;0.76;76.35;96666.25;4890317;29;19971;-75
2022/04/10 03:42:36;;;;;;;;;;;;;;;0.77;76.12;96668.66;4894142;29;20321;-73
2022/04/10 03:45:20;;;;;;;;;;;;;;;0.80;76.00;96676.13;4889479;29;19957;-74
2022/04/10 03:48:05;;;;;;;;;;;;;;;0.81;75.89;96680.31;4893444;29;20398;-73
2022/04/10 03:50:50;;;;;;;;;;;;;;;0.81;76.13;96685.47;4888568;29;20411;-73
2022/04/10 03:53:34;;;;;;;;;;;;;;;0.83;75.77;96685.31;4883358;29;19964;-73
2022/04/10 03:56:18;;;;;;;;;;;;;;;0.80;75.45;96681.28;4890097;29;19973;-72
2022/04/10 03:59:03;;;;;;;;;;;;;;;0.77;75.67;96691.09;4891741;29;20009;-73
2022/04/10 04:01:47;;;;;;;;;;;;;;;0.74;75.27;96693.97;4891701;29;20348;-74
2022/04/10 04:04:32;;;;;;;;;;;;;;;0.70;75.06;96685.72;4895274;29;19967;-73
2022/04/10 04:07:16;;;;;;;;;;;;;;;0.68;75.54;96686.84;4885078;29;19976;-73
2022/04/10 04:10:00;;;;;;;;;;;;;;;0.68;75.69;96694.56;4889470;29;19965;-72
2022/04/10 04:12:45;;;;;;;;;;;;;;;0.64;75.35;96688.09;4890281;29;19960;-73
2022/04/10 04:15:29;;;;;;;;;;;;;;;0.61;75.94;96702.09;4888637;29;19959;-73
2022/04/10 04:18:14;;;;;;;;;;;;;;;0.54;75.74;96703.66;4888455;29;19954;-73
2022/04/10 04:20:58;;;;;;;;;;;;;;;0.45;76.73;96707.94;4891500;29;19980;-73
2022/04/10 04:23:42;;;;;;;;;;;;;;;0.45;76.55;96709.72;4893409;29;19958;-73
2022/04/10 04:26:27;;;;;;;;;;;;;;;0.46;75.99;96709.53;4886815;29;19962;-73
2022/04/10 04:29:11;;;;;;;;;;;;;;;0.47;75.88;96720.69;4884572;29;19971;-73
2022/04/10 04:31:56;;;;;;;;;;;;;;;0.45;76.18;96717.44;4888867;29;19962;-73
2022/04/10 04:34:40;;;;;;;;;;;;;;;0.45;76.20;96722.59;4895814;29;19962;-73
2022/04/10 04:37:24;;;;;;;;;;;;;;;0.44;76.04;96721.78;4891109;29;19970;-74
2022/04/10 04:40:10;;;;;;;;;;;;;;;0.43;77.01;96729.69;4883622;29;20431;-73
2022/04/10 04:42:54;;;;;;;;;;;;;;;0.39;76.75;96736.91;4892072;29;19954;-71
2022/04/10 04:45:38;;;;;;;;;;;;;;;0.38;77.07;96743.03;4896125;29;19960;-71
2022/04/10 04:48:23;;;;;;;;;;;;;;;0.38;78.87;96733.50;4882290;29;19964;-71
2022/04/10 04:51:07;;;;;;;;;;;;;;;0.41;77.79;96727.25;4898254;29;20326;-71
2022/04/10 04:53:52;;;;;;;;;;;;;;;0.44;78.44;96736.44;4889079;29;19961;-72
2022/04/10 04:56:36;;;;;;;;;;;;;;;0.46;77.66;96735.34;4884098;29;19961;-73
2022/04/10 04:59:20;;;;;;;;;;;;;;;0.49;78.75;96739.41;4888256;29;19970;-73
2022/04/10 05:02:05;;;;;;;;;;;;;;;0.48;78.23;96748.09;4888768;29;19958;-73
2022/04/10 05:04:51;;;;;;;;;;;;;;;0.47;77.64;96749.06;4883115;29;19967;-74
2022/04/10 05:07:35;;;;;;;;;;;;;;;0.45;78.86;96756.94;4886896;29;19989;-73
2022/04/10 05:10:19;;;;;;;;;;;;;;;0.46;79.09;96753.41;4893649;29;19967;-73
2022/04/10 05:13:08;;;;;;;;;;;;;;;0.50;79.23;96765.06;4892318;29;20393;-74
2022/04/10 05:15:52;;;;;;;;;;;;;;;0.58;78.46;96769.50;4892541;29;20334;-73
2022/04/10 05:18:37;;;;;;;;;;;;;;;0.65;79.17;96767.13;4893311;29;19966;-73
2022/04/10 05:21:21;;;;;;;;;;;;;;;0.72;79.29;96768.19;4891046;29;19983;-73
2022/04/10 05:24:06;;;;;;;;;;;;;;;0.78;78.96;96777.91;4888465;29;19960;-74
2022/04/10 05:26:50;;;;;;;;;;;;;;;0.83;78.84;96782.63;4888874;29;19964;-73
2022/04/10 05:29:34;;;;;;;;;;;;;;;0.89;78.70;96782.03;4890469;29;20323;-74
2022/04/10 05:32:19;;;;;;;;;;;;;;;0.96;79.07;96793.38;4895434;29;19963;-73
2022/04/10 05:35:04;;;;;;;;;;;;;;;0.99;79.14;96796.47;4891904;29;20368;-73
2022/04/10 05:37:48;;;;;;;;;;;;;;;1.03;79.04;96789.25;4896596;29;19970;-74
2022/04/10 05:40:33;;;;;;;;;;;;;;;1.02;79.15;96803.13;4891536;29;19974;-73
2022/04/10 05:43:18;;;;;;;;;;;;;;;1.05;78.63;96799.41;4895732;29;19962;-73
2022/04/10 05:46:03;;;;;;;;;;;;;;;1.11;78.93;96809.97;4887669;29;20328;-73
2022/04/10 05:48:47;;;;;;;;;;;;;;;1.18;78.05;96810.19;4891297;29;19971;-74
2022/04/10 05:51:32;;;;;;;;;;;;;;;1.22;79.33;96816.69;4893678;29;20422;-73
2022/04/10 05:54:16;;;;;;;;;;;;;;;1.27;78.54;96811.88;4895172;29;19960;-74
2022/04/10 05:57:01;;;;;;;;;;;;;;;1.31;78.97;96810.59;4899109;29;19966;-73
2022/04/10 05:59:45;;;;;;;;;;;;;;;1.34;78.05;96809.50;4889283;29;19955;-73
2022/04/10 06:02:29;;;;;;;;;;;;;;;1.40;77.70;96819.22;4893935;29;19968;-74
2022/04/10 06:05:14;;;;;;;;;;;;;;;1.42;77.58;96823.28;4890120;29;19964;-73
2022/04/10 06:07:58;;;;;;;;;;;;;;;1.48;77.95;96823.66;4893544;29;19966;-73
2022/04/10 06:10:42;;;;;;;;;;;;;;;1.57;78.32;96826.13;4893534;29;19964;-75
2022/04/10 06:13:27;;;;;;;;;;;;;;;1.66;77.81;96826.16;4894178;29;20279;-75
2022/04/10 06:15:53;;;;;;;;;;;;;;;1.78;77.46;96822.38;4890886;29;19960;-74
2022/04/10 06:18:18;;;;;;;;;;;;;;;1.89;76.98;96818.69;4893729;29;20020;-74
2022/04/10 06:20:44;;;;;;;;;;;;;;;1.94;76.70;96824.25;4888656;29;20450;-74
2022/04/10 06:23:10;;;;;;;;;;;;;;;2.00;76.95;96827.00;4889593;29;19968;-74
2022/04/10 06:25:37;;;;;;;;;;;;;;;2.12;76.54;96817.22;4895615;29;20002;-74
2022/04/10 06:28:03;;;;;;;;;;;;;;;2.24;77.47;96828.09;4892240;29;20447;-75
2022/04/10 06:30:29;;;;;;;;;;;;;;;2.36;76.04;96824.25;4887840;29;19957;-74
2022/04/10 06:32:55;;;;;;;;;;;;;;;2.51;76.25;96824.47;4890481;29;19960;-74
2022/04/10 06:35:21;;;;;;;;;;;;;;;2.60;74.70;96820.94;4887100;29;19967;-74
2022/04/10 06:37:47;;;;;;;;;;;;;;;2.66;74.63;96821.25;4888270;29;19971;-76
2022/04/10 06:40:12;;;;;;;;;;;;;;;2.69;74.55;96814.00;4893600;29;19975;-74
2022/04/10 06:42:40;;;;;;;;;;;;;;;2.77;74.71;96815.78;4890859;29;19953;-75
2022/04/10 06:45:06;;;;;;;;;;;;;;;2.95;81.03;96838.97;4890305;29;20304;-75
2022/04/10 06:47:32;;;;;;;;;;;;;;;3.38;79.20;96822.31;4891290;29;19967;-75
2022/04/10 06:49:58;;;;;;;;;;;;;;;3.60;73.57;96799.25;4890549;29;20029;-75
2022/04/10 06:52:24;;;;;;;;;;;;;;;3.57;73.85;96802.16;4890368;29;19966;-75
2022/04/10 06:54:50;;;;;;;;;;;;;;;3.51;73.23;96803.66;4881342;29;20060;-75
2022/04/10 06:57:16;;;;;;;;;;;;;;;3.45;73.50;96807.69;4894058;29;20009;-75
2022/04/10 06:59:41;;;;;;;;;;;;;;;3.44;73.46;96813.88;4889799;29;19964;-75
2022/04/10 07:02:07;;;;;;;;;;;;;;;3.61;78.16;96827.63;4887121;29;19974;-75
2022/04/10 07:04:34;;;;;;;;;;;;;;;3.78;74.29;96817.19;4887587;29;19971;-74
2022/04/10 07:07:00;;;;;;;;;;;;;;;3.85;73.90;96824.16;4894913;29;19988;-75
2022/04/10 07:09:26;;;;;;;;;;;;;;;3.97;73.94;96823.78;4893218;29;19964;-78
2022/04/10 07:11:52;;;;;;;;;;;;;;;4.01;72.46;96818.13;4888981;29;20480;-75
2022/04/10 07:14:18;;;;;;;;;;;;;;;4.00;72.18;96819.09;4889978;29;19975;-75
2022/04/10 07:16:44;;;;;;;;;;;;;;;4.03;71.88;96821.38;4889325;29;20037;-75
2022/04/10 07:19:10;;;;;;;;;;;;;;;4.09;73.00;96825.06;4890319;29;20032;-75
2022/04/10 07:24:20;;;;;;;;;;;;;;;4.40;72.31;96821.69;4899395;29;19968;-74
2022/04/10 07:26:46;;;;;;;;;;;;;;;4.58;71.32;96814.47;4885003;29;19998;-75
2022/04/10 07:29:12;;;;;;;;;;;;;;;4.70;70.43;96808.88;4888296;29;19966;-75
2022/04/10 07:31:39;;;;;;;;;;;;;;;4.76;69.76;96809.00;4893562;29;20326;-75
2022/04/10 07:34:06;;;;;;;;;;;;;;;4.82;69.20;96807.50;4892401;29;19967;-75
2022/04/10 07:36:32;;;;;;;;;;;;;;;5.04;69.61;96819.72;4889641;29;19976;-76
2022/04/10 07:38:58;;;;;;;;;;;;;;;5.28;67.96;96794.50;4883387;29;19966;-76
2022/04/10 07:41:24;;;;;;;;;;;;;;;5.47;69.18;96820.00;4874107;29;20033;-75
2022/04/10 07:43:50;;;;;;;;;;;;;;;5.60;72.84;96852.41;4882559;29;19963;-74
2022/04/10 07:49:00;;;;;;;;;;;;;;;6.00;67.05;96793.16;4892963;29;20421;-77
2022/04/10 07:51:26;;;;;;;;;;;;;;;6.37;66.85;96791.44;4885923;29;19965;-75
2022/04/10 07:53:55;;;;;;;;;;;;;;;7.01;62.83;96747.16;4884988;29;19960;-75
2022/04/10 07:56:21;;;;;;;;;;;;;;;7.53;63.93;96766.03;4898164;29;19961;-75
2022/04/10 07:58:47;;;;;;;;;;;;;;;7.58;62.47;96752.41;4885203;29;19959;-75
2022/04/10 08:01:12;;;;;;;;;;;;;;;7.85;63.15;96769.03;4889657;29;19976;-76
2022/04/10 08:03:38;;;;;;;;;;;;;;;8.10;61.14;96751.09;4889193;29;20464;-75
2022/04/10 08:06:04;;;;;;;;;;;;;;;8.20;61.76;96750.72;4889433;29;20056;-75
2022/04/10 08:08:30;;;;;;;;;;;;;;;8.25;62.73;96749.16;4888826;29;19970;-75
2022/04/10 08:10:56;;;;;;;;;;;;;;;8.53;58.58;96714.28;4882733;29;19962;-76
2022/04/10 08:13:22;;;;;;;;;;;;;;;8.75;54.53;96667.84;4893118;29;19967;-74
2022/04/10 08:15:48;;;;;;;;;;;;;;;8.90;55.60;96696.41;4890449;29;20008;-75
2022/04/10 08:18:15;;;;;;;;;;;;;;;8.91;54.17;96670.06;4884582;29;20420;-73
2022/04/10 08:20:41;;;;;;;;;;;;;;;8.88;53.02;96678.31;4891297;29;20351;-74
2022/04/10 08:23:08;;;;;;;;;;;;;;;8.85;55.34;96704.06;4891378;29;19971;-74
2022/04/10 08:25:34;;;;;;;;;;;;;;;8.97;52.54;96668.47;4892181;29;19970;-75
2022/04/10 08:28:00;;;;;;;;;;;;;;;9.32;52.45;96663.81;4890326;29;19962;-74
2022/04/10 08:30:27;;;;;;;;;;;;;;;9.70;51.68;96657.84;4888383;29;19964;-74
2022/04/10 08:32:53;;;;;;;;;;;;;;;10.06;51.26;96659.13;4886523;29;19970;-74
2022/04/10 08:35:18;;;;;;;;;;;;;;;10.37;52.74;96678.53;4897016;29;19973;-74
2022/04/10 08:37:45;;;;;;;;;;;;;;;10.48;49.56;96653.47;4888848;29;19967;-75
2022/04/10 08:40:11;;;;;;;;;;;;;;;10.41;50.89;96657.94;4889393;29;19966;-74
2022/04/10 08:42:37;;;;;;;;;;;;;;;9.96;47.01;96619.47;4891674;29;20359;-75
2022/04/10 08:45:05;;;;;;;;;;;;;;;9.47;50.66;96720.31;4894883;29;19962;-74
2022/04/10 08:47:32;;;;;;;;;;;;;;;8.95;49.12;96730.63;4888200;29;19959;-74
2022/04/10 08:49:59;;;;;;;;;;;;;;;8.60;48.15;96714.28;4895068;29;20433;-74
2022/04/10 08:52:26;;;;;;;;;;;;;;;8.39;52.36;96770.91;4887275;29;19952;-75
2022/04/10 08:54:51;;;;;;;;;;;;;;;8.27;51.28;96751.56;4890164;29;19972;-75
2022/04/10 08:57:17;;;;;;;;;;;;;;;8.41;51.16;96750.63;4898027;29;19959;-74
2022/04/10 08:59:43;;;;;;;;;;;;;;;8.45;50.74;96751.06;4891818;29;20415;-74
2022/04/10 09:02:10;;;;;;;;;;;;;;;8.25;47.26;96722.19;4888236;29;19976;-74
2022/04/10 09:04:37;;;;;;;;;;;;;;;8.19;48.64;96749.09;4891532;29;19963;-74
2022/04/10 09:07:05;;;;;;;;;;;;;;;8.19;51.49;96785.69;4887771;29;20353;-74
2022/04/10 09:09:31;;;;;;;;;;;;;;;8.23;52.71;96787.72;4895722;29;19966;-74
2022/04/10 09:11:58;;;;;;;;;;;;;;;8.40;53.80;96780.38;4896587;29;19967;-74
2022/04/10 09:14:25;;;;;;;;;;;;;;;8.82;49.87;96748.91;4889565;29;19965;-74
2022/04/10 09:17:12;;;;;;;;;;;;;;;8.90;49.63;96752.16;4892201;29;19962;-74
2022/04/10 09:19:40;;;;;;;;;;;;;;;8.75;48.81;96756.75;4888799;29;19967;-75
2022/04/10 09:22:21;;;;;;;;;;;;;;;8.66;51.43;96769.19;4901715;29;19979;-75
2022/04/10 09:25:04;;;;;;;;;;;;;;;8.53;49.88;96759.50;4883253;29;19962;-74
2022/04/10 09:27:31;;;;;;;;;;;;;;;8.26;52.87;96805.63;4898504;29;20410;-75
2022/04/10 09:29:57;;;;;;;;;;;;;;;8.00;52.03;96797.63;4894147;29;19966;-75
2022/04/10 09:32:23;;;;;;;;;;;;;;;7.90;54.71;96824.91;4890239;29;19968;-76
2022/04/10 09:34:56;;;;;;;;;;;;;;;7.89;50.34;96775.47;4893090;29;20432;-74
2022/04/10 09:37:22;;;;;;;;;;;;;;;8.06;51.71;96791.66;4893190;29;19970;-75
2022/04/10 09:39:48;;;;;;;;;;;;;;;8.26;50.43;96771.66;4893950;29;19966;-74
2022/04/10 09:42:14;;;;;;;;;;;;;;;8.25;47.99;96743.94;4888311;29;19982;-74
2022/04/10 09:44:40;;;;;;;;;;;;;;;8.29;48.25;96753.00;4889110;29;19965;-75
2022/04/10 09:47:06;;;;;;;;;;;;;;;8.44;47.61;96744.19;4890828;29;19962;-74
2022/04/10 09:49:39;;;;;;;;;;;;;;;8.65;49.15;96775.44;4894387;29;20443;-74
2022/04/10 09:52:06;;;;;;;;;;;;;;;9.11;46.17;96735.47;4891901;29;19956;-75
2022/04/10 09:54:33;;;;;;;;;;;;;;;9.55;44.66;96722.72;4894473;29;19956;-74
2022/04/10 09:57:03;;;;;;;;;;;;;;;9.63;49.31;96798.47;4889855;29;20330;-74
2022/04/10 09:59:30;;;;;;;;;;;;;;;9.40;46.05;96757.00;4870265;29;19962;-74
2022/04/10 10:01:56;;;;;;;;;;;;;;;8.91;49.18;96802.66;4896576;29;19977;-74
2022/04/10 10:04:22;;;;;;;;;;;;;;;8.50;50.22;96820.03;4896103;29;19967;-74
2022/04/10 10:06:49;;;;;;;;;;;;;;;8.08;53.72;96883.69;4890903;29;20044;-74
2022/04/10 10:09:15;;;;;;;;;;;;;;;7.69;56.82;96918.97;4886160;29;19961;-74
2022/04/10 10:11:41;;;;;;;;;;;;;;;7.29;57.20;96918.59;4891524;29;20048;-74
2022/04/10 10:14:07;;;;;;;;;;;;;;;7.03;58.68;96932.94;4888643;29;19963;-74
2022/04/10 10:16:34;;;;;;;;;;;;;;;6.73;60.53;96941.81;4896472;29;19968;-74
2022/04/10 10:19:00;;;;;;;;;;;;;;;6.49;59.22;96925.47;4887951;29;20341;-74
2022/04/10 10:21:26;;;;;;;;;;;;;;;6.41;60.27;96926.34;4889073;29;19979;-75
2022/04/10 10:23:53;;;;;;;;;;;;;;;6.40;61.22;96931.72;4897301;29;19961;-74
2022/04/10 10:26:34;;;;;;;;;;;;;;;6.47;59.44;96907.41;4883961;29;19953;-74
2022/04/10 10:29:15;;;;;;;;;;;;;;;6.47;59.12;96893.56;4891920;29;19957;-74
2022/04/10 10:31:44;;;;;;;;;;;;;;;6.53;62.11;96920.69;4892553;29;19970;-74
2022/04/10 10:34:10;;;;;;;;;;;;;;;6.66;59.98;96889.59;4895784;29;19966;-75
2022/04/10 10:36:36;;;;;;;;;;;;;;;6.73;61.50;96898.28;4889135;29;19967;-74
2022/04/10 10:39:06;;;;;;;;;;;;;;;6.89;62.25;96903.31;4900201;29;19978;-74
2022/04/10 10:41:33;;;;;;;;;;;;;;;7.06;56.41;96840.50;4885266;29;19979;-74
2022/04/10 10:44:14;;;;;;;;;;;;;;;7.14;60.06;96870.84;4896924;29;19956;-74
2022/04/10 10:46:54;;;;;;;;;;;;;;;7.37;59.12;96845.41;4893861;29;19964;-74
2022/04/10 10:49:21;;;;;;;;;;;;;;;7.74;59.71;96853.91;4899698;29;20319;-74
2022/04/10 10:51:48;;;;;;;;;;;;;;;8.08;59.40;96844.50;4887009;29;19954;-74
2022/04/10 10:54:18;;;;;;;;;;;;;;;8.52;57.71;96825.06;4890822;29;20001;-74
2022/04/10 10:56:46;;;;;;;;;;;;;;;8.95;54.87;96785.56;4889618;29;19956;-74
2022/04/10 10:59:23;;;;;;;;;;;;;;;9.24;53.38;96781.78;4894465;29;20027;-74
2022/04/10 11:02:00;;;;;;;;;;;;;;;9.40;51.81;96764.84;4891412;29;19977;-74
2022/04/10 11:04:29;;;;;;;;;;;;;;;9.64;52.71;96784.38;4887827;29;20320;-74
2022/04/10 11:07:09;;;;;;;;;;;;;;;9.94;49.46;96736.75;4893628;29;20470;-76
2022/04/10 11:09:34;;;;;;;;;;;;;;;9.90;51.96;96774.84;4882480;29;20333;-74
2022/04/10 11:12:00;;;;;;;;;;;;;;;9.62;48.26;96730.59;4890205;29;20009;-74
2022/04/10 11:14:35;;;;;;;;;;;;;;;9.27;50.70;96764.84;4890056;29;19968;-75
2022/04/10 11:17:08;;;;;;;;;;;;;;;8.93;49.27;96759.59;4892035;29;19956;-75
2022/04/10 11:19:34;;;;;;;;;;;;;;;8.79;52.15;96788.53;4894287;29;19955;-74
2022/04/10 11:22:00;;;;;;;;;;;;;;;8.66;51.93;96784.09;4890463;29;19981;-74
2022/04/10 11:24:35;;;;;;;;;;;;;;;8.67;50.09;96756.94;4889752;29;19964;-74
2022/04/10 11:27:03;;;;;;;;;;;;;;;8.76;52.21;96792.38;4897577;29;19972;-75
2022/04/10 11:29:31;;;;;;;;;;;;;;;8.86;45.82;96710.88;4888575;29;19977;-74
2022/04/10 11:32:02;;;;;;;;;;;;;;;9.02;49.35;96754.19;4873742;29;20353;-74
2022/04/10 11:34:29;;;;;;;;;;;;;;;9.27;50.78;96768.28;4883006;29;19976;-76
2022/04/10 11:36:56;;;;;;;;;;;;;;;9.44;49.07;96745.09;4894026;29;19963;-75
2022/04/10 11:39:23;;;;;;;;;;;;;;;9.66;49.04;96745.69;4891499;29;19960;-75
2022/04/10 11:41:50;;;;;;;;;;;;;;;10.10;47.86;96723.22;4882018;29;19976;-74
2022/04/10 11:44:17;;;;;;;;;;;;;;;10.49;41.63;96670.81;4892473;29;19969;-74
2022/04/10 11:46:44;;;;;;;;;;;;;;;10.74;46.11;96720.69;4885600;29;19983;-74
2022/04/10 11:49:13;;;;;;;;;;;;;;;10.65;46.31;96712.28;4900525;29;19960;-74
2022/04/10 11:51:51;;;;;;;;;;;;;;;10.45;43.33;96685.34;4899568;29;19961;-76
2022/04/10 11:54:34;;;;;;;;;;;;;;;10.33;43.40;96686.03;4887495;29;19955;-74
2022/04/10 11:57:00;;;;;;;;;;;;;;;10.23;39.53;96648.94;4888545;29;19979;-74
2022/04/10 11:59:37;;;;;;;;;;;;;;;10.18;42.92;96798.16;4886375;29;19964;-74
2022/04/10 12:02:23;;;;;;;;;;;;;;;10.02;37.74;96786.31;4890508;29;19976;-74
2022/04/10 12:04:50;;;;;;;;;;;;;;;9.95;40.05;96783.72;4898834;29;19968;-74
2022/04/10 12:07:20;;;;;;;;;;;;;;;10.20;45.19;96803.19;4883464;29;19985;-74
2022/04/10 12:09:47;;;;;;;;;;;;;;;10.16;40.59;96781.81;4886222;29;19971;-74
2022/04/10 12:12:13;;;;;;;;;;;;;;;10.09;43.25;96808.06;4889637;29;20328;-74
2022/04/10 12:14:39;;;;;;;;;;;;;;;9.88;41.81;96795.22;4886447;29;20006;-75
2022/04/10 12:17:11;;;;;;;;;;;;;;;9.75;41.91;96801.28;4888835;29;19956;-74
2022/04/10 12:19:37;;;;;;;;;;;;;;;9.68;42.16;96795.22;4884295;29;19965;-74
2022/04/10 12:22:04;;;;;;;;;;;;;;;9.66;39.15;96778.91;4888913;29;19977;-74
2022/04/10 12:24:30;;;;;;;;;;;;;;;9.61;40.92;96789.19;4890385;29;19967;-74
2022/04/10 12:26:57;;;;;;;;;;;;;;;9.63;42.39;96808.13;4880411;29;19962;-74
2022/04/10 12:29:23;;;;;;;;;;;;;;;9.60;42.26;96804.13;4883706;29;19961;-73
2022/04/10 12:31:50;;;;;;;;;;;;;;;9.53;43.66;96811.97;4900199;29;19956;-75
2022/04/10 12:34:17;;;;;;;;;;;;;;;9.57;43.08;96811.56;4872499;29;19959;-74
2022/04/10 12:36:47;;;;;;;;;;;;;;;9.74;43.04;96807.50;4885181;29;19962;-75
2022/04/10 12:39:25;;;;;;;;;;;;;;;10.19;41.72;96783.25;4890827;29;19969;-74
2022/04/10 12:42:01;;;;;;;;;;;;;;;10.67;37.95;96757.44;4893058;29;19981;-74
2022/04/10 12:44:27;;;;;;;;;;;;;;;11.09;40.92;96780.63;4888395;29;20411;-74
2022/04/10 12:46:53;;;;;;;;;;;;;;;11.28;40.66;96761.28;4884898;29;19962;-75
2022/04/10 12:49:19;;;;;;;;;;;;;;;11.39;40.81;96765.03;4885664;29;20341;-74
2022/04/10 12:51:54;;;;;;;;;;;;;;;11.46;40.84;96773.63;4890833;29;20337;-74
2022/04/10 12:54:33;;;;;;;;;;;;;;;11.48;41.91;96782.09;4894757;29;20331;-75
2022/04/10 12:56:59;;;;;;;;;;;;;;;11.46;38.00;96767.59;4888257;29;20418;-74
2022/04/10 12:59:40;;;;;;;;;;;;;;;11.34;38.92;96770.13;4888883;29;19960;-74
2022/04/10 13:02:21;;;;;;;;;;;;;;;11.11;38.55;96770.72;4888076;29;19970;-75
2022/04/10 13:05:00;;;;;;;;;;;;;;;11.02;42.13;96788.50;4888840;29;20428;-74
2022/04/10 13:07:27;;;;;;;;;;;;;;;10.91;38.83;96762.94;4890516;29;19982;-74
2022/04/10 13:10:06;;;;;;;;;;;;;;;10.82;42.12;96777.34;4893640;29;20320;-74
2022/04/10 13:12:39;;;;;;;;;;;;;;;10.88;40.36;96773.88;4884158;29;20406;-74
2022/04/10 13:15:08;;;;;;;;;;;;;;;10.85;38.18;96759.34;4890494;29;19989;-74
2022/04/10 13:17:35;;;;;;;;;;;;;;;10.68;39.48;96766.91;4887600;29;20307;-74
2022/04/10 13:20:05;;;;;;;;;;;;;;;10.49;39.55;96763.38;4893618;29;20320;-74
2022/04/10 13:22:41;;;;;;;;;;;;;;;10.36;40.10;96781.81;4890113;29;19970;-74
2022/04/10 13:25:08;;;;;;;;;;;;;;;10.28;40.13;96785.41;4888471;29;20297;-74